Time;durP1;ratioP1;P1;durP2;ratioP2;P2;SDS_P1;SDS_P2;PMS_P1;PMS_P2;Temp;Humidity;BMP_temperature;BMP_pressure;BME280_temperature;BME280_humidity;BME280_pressure;Samples;Min_cycle;Max_cycle;Signal;HPM_P1;HPM_P2
2022/09/10 00:01:36;;;;;;;4.57;1.07;;;;;;;19.15;56.21;97744.53;8315396;28;20263;-81
2022/09/10 00:05:41;;;;;;;2.03;0.90;;;;;;;19.25;55.37;97745.44;8315072;28;20416;-81
2022/09/10 00:09:44;;;;;;;4.17;1.00;;;;;;;19.35;55.15;97745.50;8315371;28;20250;-80
2022/09/10 00:13:48;;;;;;;3.47;1.30;;;;;;;19.25;55.24;97742.81;8314357;28;20254;-77
2022/09/10 00:17:50;;;;;;;2.43;1.07;;;;;;;19.18;56.07;97739.03;8315002;28;20239;-78
2022/09/10 00:21:54;;;;;;;4.70;1.00;;;;;;;19.09;56.64;97731.91;8315089;28;20231;-79
2022/09/10 00:25:57;;;;;;;4.97;1.07;;;;;;;19.08;57.23;97732.91;8314894;28;20445;-79
2022/09/10 00:30:01;;;;;;;7.10;1.20;;;;;;;19.02;57.17;97730.75;8314708;28;20239;-79
2022/09/10 00:34:05;;;;;;;5.27;1.20;;;;;;;19.01;57.67;97732.56;8314615;28;20294;-78
2022/09/10 00:38:10;;;;;;;4.03;1.10;;;;;;;18.87;57.74;97717.13;8314693;28;20229;-78
2022/09/10 00:42:13;;;;;;;1.60;0.80;;;;;;;18.83;57.62;97721.78;8314631;28;20225;-77
2022/09/10 00:46:22;;;;;;;3.70;0.93;;;;;;;18.93;57.52;97721.88;8314470;28;20228;-78
2022/09/10 00:50:27;;;;;;;7.43;1.60;;;;;;;18.90;57.39;97716.88;8314600;28;20229;-78
2022/09/10 00:54:32;;;;;;;4.27;2.00;;;;;;;18.88;57.66;97708.28;8314525;28;20225;-79
2022/09/10 00:58:35;;;;;;;4.60;2.00;;;;;;;18.86;57.40;97705.78;8314434;28;20236;-78
2022/09/10 01:02:38;;;;;;;5.00;1.50;;;;;;;18.85;57.70;97700.66;8314459;28;20279;-77
2022/09/10 01:06:41;;;;;;;3.40;1.20;;;;;;;18.76;57.98;97704.84;8314576;28;20242;-77
2022/09/10 01:10:57;;;;;;;3.20;1.20;;;;;;;18.73;57.59;97699.84;8314001;28;20227;-78
2022/09/10 01:15:08;;;;;;;3.43;1.20;;;;;;;18.76;57.47;97696.97;8313921;28;20229;-77
2022/09/10 01:19:26;;;;;;;5.10;0.97;;;;;;;18.77;57.74;97696.00;8314361;28;20232;-77
2022/09/10 01:23:50;;;;;;;3.20;1.10;;;;;;;18.83;57.27;97698.19;8314074;28;20256;-78
2022/09/10 01:27:56;;;;;;;3.70;1.27;;;;;;;18.78;57.50;97694.25;8313556;28;20225;-78
2022/09/10 01:32:03;;;;;;;3.43;1.20;;;;;;;18.88;57.87;97701.25;8313889;28;20228;-80
2022/09/10 01:36:11;;;;;;;4.83;1.43;;;;;;;19.19;57.30;97700.47;8313955;28;20399;-79
2022/09/10 01:40:16;;;;;;;3.83;1.10;;;;;;;18.93;56.98;97703.50;8313883;28;20229;-77
2022/09/10 01:44:43;;;;;;;6.07;1.10;;;;;;;18.81;57.19;97701.88;8317690;28;20235;-78
2022/09/10 01:49:15;;;;;;;3.20;0.90;;;;;;;18.80;57.17;97700.19;8319887;28;20241;-77
2022/09/10 01:53:38;;;;;;;3.53;0.80;;;;;;;18.92;56.51;97688.72;8317860;28;20228;-77
2022/09/10 01:57:47;;;;;;;8.97;0.93;;;;;;;18.90;56.76;97694.06;8319541;28;20230;-76
2022/09/10 02:01:56;;;;;;;5.40;1.03;;;;;;;18.92;56.40;97686.09;8319163;28;20318;-77
2022/09/10 02:06:00;;;;;;;2.87;1.07;;;;;;;18.91;56.56;97682.63;8319199;28;20233;-77
2022/09/10 02:10:05;;;;;;;3.23;1.00;;;;;;;18.90;56.66;97682.75;8319346;28;20230;-77
2022/09/10 02:14:08;;;;;;;3.73;1.20;;;;;;;18.92;56.58;97689.56;8319136;28;20263;-77
2022/09/10 02:18:12;;;;;;;4.60;1.00;;;;;;;18.90;56.56;97680.94;8319441;28;20243;-77
2022/09/10 02:22:15;;;;;;;2.53;0.93;;;;;;;18.86;56.47;97678.72;8318844;28;20504;-77
2022/09/10 02:26:18;;;;;;;4.60;0.83;;;;;;;18.91;56.53;97676.56;8318903;28;20228;-77
2022/09/10 02:30:23;;;;;;;1.80;0.90;;;;;;;18.91;56.46;97687.88;8318739;28;20441;-77
2022/09/10 02:34:27;;;;;;;3.37;0.80;;;;;;;18.87;56.33;97686.47;8318362;28;20232;-77
2022/09/10 02:38:30;;;;;;;2.50;0.93;;;;;;;18.76;56.66;97689.13;8318477;28;20245;-77
2022/09/10 02:42:33;;;;;;;3.10;1.17;;;;;;;18.63;56.76;97686.66;8318020;28;20237;-78
2022/09/10 02:46:35;;;;;;;2.07;0.80;;;;;;;18.85;55.90;97687.53;8317692;28;20243;-77
2022/09/10 02:50:39;;;;;;;2.53;1.00;;;;;;;18.85;55.96;97691.03;8317755;28;20233;-78
2022/09/10 02:54:42;;;;;;;2.40;0.80;;;;;;;18.76;56.35;97689.13;8316430;28;20524;-77
2022/09/10 02:58:45;;;;;;;2.50;0.83;;;;;;;18.81;56.34;97692.22;8317160;28;20229;-77
2022/09/10 03:02:48;;;;;;;2.00;0.77;;;;;;;18.82;56.41;97695.69;8316642;28;20238;-77
2022/09/10 03:06:53;;;;;;;3.60;0.90;;;;;;;18.84;56.06;97696.38;8317065;28;20248;-77
2022/09/10 03:10:58;;;;;;;1.63;0.70;;;;;;;18.83;56.41;97699.94;8317143;28;20255;-77
2022/09/10 03:15:00;;;;;;;1.27;0.67;;;;;;;18.71;56.88;97689.47;8316627;28;20235;-77
2022/09/10 03:19:03;;;;;;;4.00;1.00;;;;;;;18.83;56.21;97690.31;8316649;28;20453;-77
2022/09/10 03:23:07;;;;;;;4.57;1.10;;;;;;;18.87;56.10;97691.72;8316781;28;20585;-77
2022/09/10 03:27:12;;;;;;;2.50;0.80;;;;;;;18.86;55.77;97681.34;8316454;28;20436;-77
2022/09/10 03:31:16;;;;;;;2.53;1.00;;;;;;;18.87;55.88;97688.28;8316692;28;20237;-77
2022/09/10 03:35:21;;;;;;;4.20;1.03;;;;;;;18.78;55.92;97691.63;8316412;28;20235;-78
2022/09/10 03:39:25;;;;;;;1.60;0.70;;;;;;;18.82;55.82;97683.38;8316144;28;20241;-78
2022/09/10 03:43:28;;;;;;;2.20;0.90;;;;;;;18.73;56.03;97687.59;8315860;28;20513;-77
2022/09/10 03:47:31;;;;;;;1.67;0.53;;;;;;;18.80;56.06;97687.94;8316450;28;20456;-77
2022/09/10 03:51:34;;;;;;;2.43;0.90;;;;;;;18.87;55.51;97689.09;8316301;28;20240;-77
2022/09/10 03:55:39;;;;;;;2.27;0.53;;;;;;;18.82;55.91;97693.06;8316697;28;20282;-77
2022/09/10 03:59:41;;;;;;;3.57;0.80;;;;;;;18.69;56.45;97680.09;8316031;28;20245;-77
2022/09/10 04:03:44;;;;;;;2.97;0.73;;;;;;;18.75;56.33;97684.81;8316096;28;20236;-77
2022/09/10 04:07:47;;;;;;;1.83;0.70;;;;;;;18.87;55.47;97690.91;8315199;28;20518;-77
2022/09/10 04:11:51;;;;;;;3.10;0.83;;;;;;;18.80;55.53;97695.81;8315586;28;20254;-78
2022/09/10 04:15:54;;;;;;;2.33;0.63;;;;;;;18.74;56.12;97688.41;8315839;28;20464;-78
2022/09/10 04:19:57;;;;;;;3.63;0.80;;;;;;;18.76;55.75;97696.97;8315616;28;20289;-78
2022/09/10 04:24:00;;;;;;;1.97;0.80;;;;;;;18.83;55.94;97686.84;8315588;28;20238;-78
2022/09/10 04:28:04;;;;;;;2.17;0.70;;;;;;;18.85;55.67;97695.41;8315645;28;20518;-78
2022/09/10 04:32:07;;;;;;;2.10;0.60;;;;;;;18.75;56.33;97697.94;8315510;28;20264;-78
2022/09/10 04:36:11;;;;;;;2.03;0.60;;;;;;;18.58;56.70;97694.06;8315299;28;20233;-78
2022/09/10 04:40:14;;;;;;;1.40;0.70;;;;;;;18.92;56.02;97696.56;8315335;28;20236;-77
2022/09/10 04:44:19;;;;;;;1.77;0.60;;;;;;;18.93;55.95;97696.44;8315180;28;20297;-78
2022/09/10 04:48:22;;;;;;;2.23;0.77;;;;;;;18.97;55.93;97698.84;8315148;28;20239;-77
2022/09/10 04:52:25;;;;;;;2.27;0.70;;;;;;;18.73;56.53;97700.69;8315024;28;20240;-78
2022/09/10 04:56:28;;;;;;;1.03;0.53;;;;;;;18.70;56.45;97706.19;8315124;28;20249;-78
2022/09/10 05:00:33;;;;;;;3.07;0.60;;;;;;;18.83;56.03;97710.44;8314834;28;20234;-78
2022/09/10 05:04:36;;;;;;;3.53;0.60;;;;;;;18.77;56.83;97706.50;8314682;28;20246;-78
2022/09/10 05:08:39;;;;;;;1.67;0.80;;;;;;;18.83;56.55;97716.53;8315328;28;20241;-78
2022/09/10 05:12:41;;;;;;;1.63;0.70;;;;;;;18.71;57.12;97717.50;8314740;28;20545;-78
2022/09/10 05:16:46;;;;;;;3.97;1.00;;;;;;;18.82;56.70;97714.03;8314675;28;20229;-78
2022/09/10 05:20:49;;;;;;;2.00;0.70;;;;;;;18.83;56.86;97713.94;8320590;28;20232;-77
2022/09/10 05:24:54;;;;;;;2.40;0.80;;;;;;;18.78;57.50;97721.28;8320739;28;20238;-78
2022/09/10 05:28:58;;;;;;;3.07;0.70;;;;;;;18.70;57.83;97726.34;8320878;28;20283;-78
2022/09/10 05:33:03;;;;;;;1.90;0.70;;;;;;;18.58;58.17;97725.53;8320527;28;20248;-78
2022/09/10 05:37:07;;;;;;;1.53;0.60;;;;;;;18.69;57.75;97722.03;8320349;28;20233;-78
2022/09/10 05:41:10;;;;;;;5.00;0.87;;;;;;;18.66;58.35;97720.50;8320334;28;20237;-78
2022/09/10 05:45:13;;;;;;;2.63;0.83;;;;;;;18.70;58.21;97728.97;8320132;28;20244;-78
2022/09/10 05:49:17;;;;;;;1.73;0.80;;;;;;;18.69;58.26;97730.72;8320102;28;20324;-77
2022/09/10 05:53:20;;;;;;;1.43;0.70;;;;;;;18.74;58.32;97725.13;8320135;28;20236;-78
2022/09/10 05:57:23;;;;;;;2.23;0.67;;;;;;;18.83;57.76;97731.44;8320126;28;20237;-78
2022/09/10 06:01:26;;;;;;;3.70;0.70;;;;;;;18.85;57.84;97732.13;8319792;28;20248;-78
2022/09/10 06:05:30;;;;;;;1.40;0.60;;;;;;;18.88;57.82;97734.53;8319735;28;20241;-78
2022/09/10 06:09:33;;;;;;;3.10;0.80;;;;;;;18.87;57.59;97723.19;8319777;28;20241;-78
2022/09/10 06:13:38;;;;;;;3.27;1.10;;;;;;;18.90;57.89;97732.59;8319195;28;20303;-78
2022/09/10 06:17:40;;;;;;;2.60;0.60;;;;;;;18.86;57.80;97733.81;8319712;28;20246;-77
2022/09/10 06:21:45;;;;;;;2.63;0.70;;;;;;;18.89;57.95;97736.19;8319212;28;20244;-78
2022/09/10 06:25:48;;;;;;;2.20;0.73;;;;;;;18.97;58.11;97740.81;8318866;28;20236;-78
2022/09/10 06:29:51;;;;;;;1.80;0.80;;;;;;;19.00;57.75;97736.16;8318691;28;20230;-78
2022/09/10 06:33:53;;;;;;;2.90;0.67;;;;;;;18.92;58.61;97738.56;8318918;28;20243;-77
2022/09/10 06:37:58;;;;;;;2.27;0.80;;;;;;;18.67;58.66;97744.94;8318665;28;20241;-78
2022/09/10 06:42:01;;;;;;;1.90;0.80;;;;;;;18.90;58.90;97746.53;8318491;28;20240;-78
2022/09/10 06:46:09;;;;;;;1.90;0.70;;;;;;;18.82;58.86;97743.72;8318686;28;20232;-78
2022/09/10 06:50:31;;;;;;;1.87;0.93;;;;;;;18.89;59.24;97741.44;8318478;28;20232;-78
2022/09/10 06:54:36;;;;;;;2.87;0.70;;;;;;;19.13;57.97;97743.81;8318338;28;20237;-83
2022/09/10 06:58:39;;;;;;;9.30;1.00;;;;;;;19.71;56.93;97740.72;8318362;28;20527;-82
2022/09/10 07:02:42;;;;;;;3.37;0.80;;;;;;;19.62;56.15;97747.59;8317901;28;20240;-81
2022/09/10 07:06:45;;;;;;;2.70;0.97;;;;;;;19.97;55.42;97749.03;8317614;28;20416;-80
2022/09/10 07:10:50;;;;;;;2.37;0.90;;;;;;;20.21;55.00;97746.06;8317025;28;20539;-83
2022/09/10 07:14:52;;;;;;;2.87;0.70;;;;;;;20.08;55.27;97748.91;8317355;28;20233;-81
2022/09/10 07:18:57;;;;;;;1.00;0.60;;;;;;;20.06;55.15;97747.41;8317040;28;20428;-81
2022/09/10 07:22:59;;;;;;;2.53;0.90;;;;;;;20.11;55.67;97753.91;8316690;28;20241;-82
2022/09/10 07:27:05;;;;;;;2.80;0.77;;;;;;;20.36;54.98;97761.47;8316741;28;20225;-80
2022/09/10 07:31:13;;;;;;;3.17;0.60;;;;;;;20.65;54.03;97759.75;8316542;28;20249;-81
2022/09/10 07:35:17;;;;;;;3.50;0.80;;;;;;;20.67;54.02;97759.63;8316497;28;20235;-84
2022/09/10 07:39:19;;;;;;;3.87;1.03;;;;;;;20.31;55.00;97770.59;8316085;28;20241;-83
2022/09/10 07:43:28;;;;;;;4.73;0.90;;;;;;;20.16;55.55;97769.28;8315542;28;20405;-78
2022/09/10 07:47:32;;;;;;;2.33;0.90;;;;;;;20.07;56.26;97772.72;8316059;28;20474;-78
2022/09/10 07:51:35;;;;;;;4.70;0.80;;;;;;;20.01;56.84;97776.72;8315967;28;20451;-81
2022/09/10 07:55:37;;;;;;;2.30;1.00;;;;;;;19.82;57.63;97785.34;8315741;28;20284;-77
2022/09/10 07:59:41;;;;;;;2.63;0.80;;;;;;;19.76;57.42;97790.28;8315273;28;20237;-77
2022/09/10 08:03:44;;;;;;;4.30;0.87;;;;;;;19.90;57.77;97782.88;8315257;28;20238;-77
2022/09/10 08:07:47;;;;;;;1.97;0.70;;;;;;;19.95;57.60;97789.53;8314874;28;20299;-75
2022/09/10 08:11:49;;;;;;;3.67;0.87;;;;;;;19.68;58.22;97791.72;8315024;28;20526;-79
2022/09/10 08:15:56;;;;;;;3.87;0.90;;;;;;;19.81;57.92;97795.97;8314745;28;20233;-79
2022/09/10 08:20:00;;;;;;;3.83;0.80;;;;;;;19.88;58.34;97800.59;8315153;28;20284;-79
2022/09/10 08:24:03;;;;;;;3.67;0.83;;;;;;;20.01;57.22;97802.16;8315020;28;20233;-79
2022/09/10 08:28:07;;;;;;;2.63;0.80;;;;;;;19.89;57.41;97804.84;8315169;28;20326;-79
2022/09/10 08:32:12;;;;;;;5.03;0.80;;;;;;;19.87;58.06;97813.84;8315046;28;20233;-79
2022/09/10 08:36:16;;;;;;;2.77;0.70;;;;;;;19.69;58.55;97809.16;8314795;28;20234;-80
2022/09/10 08:40:20;;;;;;;1.80;0.70;;;;;;;19.86;58.49;97813.03;8314591;28;20231;-77
2022/09/10 08:44:31;;;;;;;1.47;0.60;;;;;;;19.71;58.26;97815.13;8314944;28;20287;-79
2022/09/10 08:48:38;;;;;;;3.23;0.70;;;;;;;19.63;58.69;97822.81;8315094;28;20310;-78
2022/09/10 08:52:44;;;;;;;2.67;0.73;;;;;;;19.80;58.71;97824.06;8318070;28;20436;-79
2022/09/10 08:56:48;;;;;;;1.53;0.80;;;;;;;19.70;58.61;97826.59;8321185;28;20241;-79
2022/09/10 09:00:54;;;;;;;1.40;0.73;;;;;;;19.48;59.44;97818.84;8320608;28;20515;-78
2022/09/10 09:05:02;;;;;;;1.37;0.67;;;;;;;19.58;59.68;97829.41;8321011;28;20246;-79
2022/09/10 09:09:06;;;;;;;2.03;0.83;;;;;;;19.88;58.72;97824.22;8320772;28;20237;-80
2022/09/10 09:13:25;;;;;;;2.40;0.70;;;;;;;20.96;56.42;97829.88;8321134;28;20315;-80
2022/09/10 09:17:38;;;;;;;2.93;0.77;;;;;;;21.27;55.08;97820.06;8320711;28;20238;-80
2022/09/10 09:21:50;;;;;;;2.97;0.83;;;;;;;20.93;54.30;97823.09;8321202;28;20234;-79
2022/09/10 09:25:56;;;;;;;1.20;0.53;;;;;;;21.02;54.92;97816.19;8320703;28;20225;-79
2022/09/10 09:30:01;;;;;;;3.20;0.90;;;;;;;20.67;55.35;97820.94;8320799;28;20246;-79
2022/09/10 09:34:06;;;;;;;4.00;0.87;;;;;;;20.54;55.59;97815.06;8320845;28;20247;-79
2022/09/10 09:38:18;;;;;;;3.77;1.10;;;;;;;20.57;55.71;97822.72;8320618;28;20236;-81
2022/09/10 09:42:25;;;;;;;2.77;0.80;;;;;;;20.26;56.60;97819.28;8320365;28;20550;-81
2022/09/10 09:46:28;;;;;;;2.20;0.93;;;;;;;20.18;56.34;97813.84;8320111;28;20257;-79
2022/09/10 09:50:32;;;;;;;3.13;0.93;;;;;;;20.06;56.88;97815.75;8319529;28;20229;-77
2022/09/10 09:54:49;;;;;;;2.47;0.90;;;;;;;20.26;56.37;97814.88;8319200;28;20296;-81
2022/09/10 09:59:25;;;;;;;4.90;1.20;;;;;;;20.01;57.64;97816.16;8318629;28;20255;-80
2022/09/10 10:03:29;;;;;;;4.20;1.20;;;;;;;20.14;58.31;97818.53;8318630;28;20249;-79
2022/09/10 10:07:34;;;;;;;4.40;1.10;;;;;;;19.94;58.68;97825.50;8319307;28;20328;-79
2022/09/10 10:11:44;;;;;;;2.93;1.00;;;;;;;19.76;59.07;97817.38;8319150;28;20239;-78
2022/09/10 10:15:47;;;;;;;5.37;1.27;;;;;;;19.69;59.75;97819.66;8319090;28;20232;-78
2022/09/10 10:19:58;;;;;;;3.43;1.17;;;;;;;19.38;60.55;97812.66;8318538;28;20230;-78
2022/09/10 10:24:02;;;;;;;5.13;1.27;;;;;;;19.39;60.90;97812.53;8318795;28;20247;-80
2022/09/10 10:28:14;;;;;;;4.67;1.20;;;;;;;19.51;60.27;97813.31;8318689;28;20397;-80
2022/09/10 10:32:19;;;;;;;3.57;1.10;;;;;;;19.65;59.98;97812.19;8318458;28;20244;-81
2022/09/10 10:36:25;;;;;;;6.67;1.63;;;;;;;19.88;59.46;97811.09;8317168;28;20300;-76
2022/09/10 10:40:32;;;;;;;3.20;1.07;;;;;;;19.96;59.28;97814.88;8318050;28;20238;-80
2022/09/10 10:44:51;;;;;;;4.40;1.20;;;;;;;20.26;58.26;97801.72;8318290;28;20243;-79
2022/09/10 10:49:04;;;;;;;4.67;1.30;;;;;;;20.57;57.00;97806.09;8317699;28;20234;-77
2022/09/10 10:53:15;;;;;;;6.60;1.50;;;;;;;20.81;56.15;97798.69;8318094;28;20266;-80
2022/09/10 10:57:25;;;;;;;3.00;1.20;;;;;;;21.29;54.91;97795.25;8318158;28;20259;-79
2022/09/10 11:01:32;;;;;;;6.33;1.33;;;;;;;21.69;54.98;97797.88;8317792;28;20233;-79
2022/09/10 11:05:37;;;;;;;4.77;1.70;;;;;;;21.28;55.72;97785.69;8319034;28;20255;-79
2022/09/10 11:09:42;;;;;;;4.57;1.50;;;;;;;21.48;56.07;97786.53;8317564;28;20235;-80
2022/09/10 11:13:51;;;;;;;3.53;1.27;;;;;;;21.76;55.56;97788.38;8317169;28;20463;-80
2022/09/10 11:17:58;;;;;;;4.80;1.60;;;;;;;21.35;56.12;97783.31;8315906;28;20252;-79
2022/09/10 11:22:04;;;;;;;5.70;1.70;;;;;;;21.33;56.42;97782.63;8317148;28;20233;-80
2022/09/10 11:26:11;;;;;;;5.10;1.43;;;;;;;20.99;57.19;97783.06;8316930;28;20250;-80
2022/09/10 11:30:15;;;;;;;10.73;1.90;;;;;;;21.32;56.09;97780.13;8316613;28;20424;-80
2022/09/10 11:34:26;;;;;;;8.20;1.93;;;;;;;22.24;53.21;97775.03;8316639;28;20238;-86
2022/09/10 11:38:32;;;;;;;8.00;2.00;;;;;;;22.24;53.83;97767.13;8316466;28;20240;-79
2022/09/10 11:42:39;;;;;;;5.97;1.40;;;;;;;23.11;53.32;97766.75;8316148;28;20235;-79
2022/09/10 11:46:46;;;;;;;5.90;1.40;;;;;;;23.70;53.57;97762.53;8316141;28;20435;-79
2022/09/10 11:50:54;;;;;;;4.43;1.40;;;;;;;22.73;53.07;97751.03;8315717;28;20232;-79
2022/09/10 11:54:58;;;;;;;7.73;1.70;;;;;;;22.33;54.04;97752.28;8315934;28;20291;-79
2022/09/10 11:59:14;;;;;;;5.90;1.73;;;;;;;22.02;54.71;97756.97;8316008;28;20233;-80
2022/09/10 12:03:45;;;;;;;11.90;2.03;;;;;;;21.98;53.83;97758.22;8315543;28;20251;-80
2022/09/10 12:07:55;;;;;;;6.10;1.83;;;;;;;22.46;52.95;97762.44;8314739;28;20258;-78
2022/09/10 12:12:05;;;;;;;6.77;1.87;;;;;;;22.78;52.57;97755.84;8315426;28;20229;-84
2022/09/10 12:16:17;;;;;;;6.23;1.90;;;;;;;23.07;52.80;97744.25;8315091;28;20546;-80
2022/09/10 12:20:26;;;;;;;4.37;1.70;;;;;;;23.22;51.61;97743.56;8314975;28;20303;-80
2022/09/10 12:24:32;;;;;;;7.97;1.93;;;;;;;22.32;51.21;97755.06;8314880;28;20296;-80
2022/09/10 12:29:01;;;;;;;6.00;1.63;;;;;;;22.36;51.59;97746.69;8314187;28;20239;-80
2022/09/10 12:33:49;;;;;;;6.83;1.50;;;;;;;23.42;48.44;97735.47;8314459;28;20236;-81
2022/09/10 12:38:38;;;;;;;5.90;1.50;;;;;;;24.09;48.78;97733.03;8294638;28;20238;-80
2022/09/10 12:42:44;;;;;;;7.17;2.00;;;;;;;22.94;50.18;97721.69;8314895;28;20236;-81
2022/09/10 12:46:47;;;;;;;4.17;1.40;;;;;;;22.80;50.08;97724.84;8314899;28;20232;-80
2022/09/10 12:50:53;;;;;;;5.33;1.70;;;;;;;24.03;47.80;97725.75;8314439;28;20243;-80
2022/09/10 12:55:02;;;;;;;3.63;1.27;;;;;;;24.42;45.18;97711.97;8314512;28;20237;-80
2022/09/10 12:59:23;;;;;;;3.57;1.50;;;;;;;24.36;44.81;97709.97;8314284;28;20243;-81
2022/09/10 13:03:28;;;;;;;4.50;1.60;;;;;;;24.31;44.62;97714.91;8314314;28;20233;-80
2022/09/10 13:07:35;;;;;;;3.73;1.20;;;;;;;23.32;46.83;97709.16;8314260;28;20243;-81
2022/09/10 13:11:44;;;;;;;9.30;1.60;;;;;;;23.56;46.53;97702.34;8314089;28;20622;-80
2022/09/10 13:15:50;;;;;;;4.87;1.33;;;;;;;23.15;46.46;97702.91;8313615;28;20238;-78
2022/09/10 13:19:53;;;;;;;5.00;1.40;;;;;;;23.71;46.07;97700.78;8314030;28;20232;-80
2022/09/10 13:23:56;;;;;;;4.23;1.27;;;;;;;24.40;43.78;97680.38;8314312;28;20237;-80
2022/09/10 13:28:00;;;;;;;4.63;1.23;;;;;;;23.61;44.81;97692.13;8314197;28;20229;-80
2022/09/10 13:32:08;;;;;;;3.67;1.23;;;;;;;23.40;45.87;97687.22;8314371;28;20507;-81
2022/09/10 13:36:19;;;;;;;5.97;1.40;;;;;;;23.07;45.29;97694.91;8314091;28;20575;-80
2022/09/10 13:41:02;;;;;;;4.10;1.23;;;;;;;22.77;46.12;97699.59;8318046;28;20526;-80
2022/09/10 13:45:19;;;;;;;3.37;1.37;;;;;;;23.95;44.27;97692.16;8248891;28;20236;-81
2022/09/10 13:49:28;;;;;;;3.33;1.07;;;;;;;23.99;43.84;97690.84;8320130;28;20264;-80
2022/09/10 13:53:32;;;;;;;3.97;1.20;;;;;;;23.64;44.05;97688.34;8320326;28;20237;-81
2022/09/10 13:57:38;;;;;;;3.57;1.23;;;;;;;23.13;45.57;97683.75;8319885;28;20235;-81
2022/09/10 14:01:51;;;;;;;5.30;1.13;;;;;;;22.99;45.48;97678.97;8319774;28;20239;-80
2022/09/10 14:05:56;;;;;;;4.90;1.13;;;;;;;23.06;45.65;97684.53;8318685;28;20247;-78
2022/09/10 14:10:00;;;;;;;2.33;1.10;;;;;;;;;;8319825;28;20562;-78
2022/09/10 14:14:05;;;;;;;4.87;1.30;;;;;;;22.83;45.91;97683.16;8319467;28;20237;-83
2022/09/10 14:18:10;;;;;;;7.30;1.40;;;;;;;22.67;45.76;97690.91;8319068;28;20231;-78
2022/09/10 14:22:20;;;;;;;6.13;1.30;;;;;;;22.48;45.52;97697.16;8318688;28;20232;-79
2022/09/10 14:26:25;;;;;;;4.33;1.00;;;;;;;22.85;45.10;97693.56;8318620;28;20248;-80
2022/09/10 14:30:29;;;;;;;5.17;1.40;;;;;;;22.68;46.40;97702.31;8318573;28;20240;-79
2022/09/10 14:34:34;;;;;;;3.03;1.20;;;;;;;22.48;46.63;97706.91;8318875;28;20467;-80
2022/09/10 14:38:39;;;;;;;2.80;0.90;;;;;;;22.14;46.18;97703.06;8318575;28;20422;-80
2022/09/10 14:42:41;;;;;;;5.10;0.97;;;;;;;22.40;46.83;97692.63;8318348;28;20236;-80
2022/09/10 14:46:52;;;;;;;4.57;1.27;;;;;;;22.53;46.18;97694.09;8317905;28;20264;-77
2022/09/10 14:51:17;;;;;;;8.17;1.60;;;;;;;22.44;47.01;97687.91;8317351;28;20554;-80
2022/09/10 14:55:22;;;;;;;2.23;0.83;;;;;;;22.21;46.55;97680.38;8317507;28;20237;-81
2022/09/10 14:59:29;;;;;;;1.60;0.77;;;;;;;21.89;46.64;97693.19;8317337;28;20240;-81
2022/09/10 15:03:34;;;;;;;2.80;1.00;;;;;;;21.78;47.50;97694.19;8317225;28;20439;-81
2022/09/10 15:07:38;;;;;;;2.07;0.80;;;;;;;22.02;47.50;97698.94;8317021;28;20236;-81
2022/09/10 15:11:47;;;;;;;3.43;0.90;;;;;;;21.79;46.61;97696.69;8316792;28;20232;-81
2022/09/10 15:15:52;;;;;;;4.40;0.80;;;;;;;22.20;46.72;97689.28;8316398;28;20344;-80
2022/09/10 15:19:55;;;;;;;3.13;0.97;;;;;;;22.17;46.93;97699.28;8316244;28;20232;-80
2022/09/10 15:23:59;;;;;;;3.83;0.80;;;;;;;22.50;45.67;97697.03;8316565;28;20247;-80
2022/09/10 15:28:02;;;;;;;4.23;0.93;;;;;;;22.22;46.91;97686.50;8316233;28;20237;-80
2022/09/10 15:32:05;;;;;;;2.90;0.80;;;;;;;22.41;45.84;97686.41;8316256;28;20283;-81
2022/09/10 15:36:08;;;;;;;2.03;0.70;;;;;;;22.19;46.69;97692.88;8316263;28;20481;-80
2022/09/10 15:40:13;;;;;;;2.10;0.87;;;;;;;22.31;47.46;97690.06;8316079;28;20257;-80
2022/09/10 15:44:17;;;;;;;2.87;0.90;;;;;;;21.67;49.60;97701.31;8315736;28;20250;-79
2022/09/10 15:48:19;;;;;;;3.90;0.90;;;;;;;21.29;50.17;97707.50;8315382;28;20239;-79
2022/09/10 15:52:22;;;;;;;3.47;1.03;;;;;;;21.19;51.09;97698.78;8315441;28;20228;-79
2022/09/10 15:56:26;;;;;;;2.83;1.07;;;;;;;21.06;51.83;97692.03;8315345;28;20243;-79
2022/09/10 16:00:29;;;;;;;3.80;1.17;;;;;;;20.94;51.65;97694.94;8315403;28;20462;-77
2022/09/10 16:04:32;;;;;;;3.73;1.00;;;;;;;21.45;50.39;97694.59;8314814;28;20240;-79
2022/09/10 16:08:38;;;;;;;4.17;1.00;;;;;;;21.53;50.72;97690.41;8315446;28;20229;-82
2022/09/10 16:12:43;;;;;;;4.17;1.07;;;;;;;21.57;50.27;97703.19;8315101;28;20432;-81
2022/09/10 16:16:46;;;;;;;2.20;0.80;;;;;;;21.62;50.46;97698.28;8315173;28;20235;-79
2022/09/10 16:20:48;;;;;;;2.30;1.10;;;;;;;21.52;50.85;97700.13;8314350;28;20588;-80
2022/09/10 16:24:51;;;;;;;3.47;1.10;;;;;;;21.29;51.33;97702.25;8314543;28;20245;-79
2022/09/10 16:28:56;;;;;;;3.97;1.00;;;;;;;20.92;52.38;97702.97;8314568;28;20232;-81
2022/09/10 16:32:59;;;;;;;4.00;0.90;;;;;;;20.84;52.42;97698.41;8314304;28;20239;-79
2022/09/10 16:37:02;;;;;;;5.57;1.00;;;;;;;20.51;53.06;97694.38;8314938;28;20236;-80
2022/09/10 16:41:06;;;;;;;5.60;1.00;;;;;;;21.03;51.59;97702.81;8314791;28;20434;-79
2022/09/10 16:45:11;;;;;;;1.70;0.80;;;;;;;20.97;51.92;97710.47;8314744;28;20239;-82
2022/09/10 16:49:16;;;;;;;4.17;1.27;;;;;;;20.93;52.23;97709.09;8315056;28;20377;-83
2022/09/10 16:53:19;;;;;;;3.80;0.87;;;;;;;20.79;52.52;97712.94;8314660;28;20228;-81
2022/09/10 16:57:21;;;;;;;2.20;0.80;;;;;;;21.03;51.65;97721.25;8314357;28;20250;-78
2022/09/10 17:01:26;;;;;;;2.60;0.80;;;;;;;20.82;52.48;97717.94;8314357;28;20230;-80
2022/09/10 17:05:29;;;;;;;4.30;0.90;;;;;;;20.64;53.21;97728.34;8314070;28;20301;-80
2022/09/10 17:09:32;;;;;;;3.27;1.40;;;;;;;20.81;52.75;97730.28;8314418;28;20233;-81
2022/09/10 17:13:35;;;;;;;3.63;0.90;;;;;;;20.67;53.45;97726.22;8315622;28;20293;-80
2022/09/10 17:17:39;;;;;;;2.80;0.83;;;;;;;20.70;53.35;97736.50;8320831;28;20234;-81
2022/09/10 17:21:43;;;;;;;5.57;0.90;;;;;;;20.62;53.66;97736.34;8320780;28;20237;-80
2022/09/10 17:25:46;;;;;;;2.77;0.90;;;;;;;20.71;53.39;97732.06;8320697;28;20551;-78
2022/09/10 17:29:49;;;;;;;503.13;198.17;;;;;;;20.41;54.30;97731.19;8320166;28;20282;-82
2022/09/10 17:33:54;;;;;;;183.27;61.90;;;;;;;20.44;54.16;97737.97;8320389;28;20245;-82
2022/09/10 17:37:57;;;;;;;807.70;326.47;;;;;;;20.69;53.94;97739.25;8320172;28;20230;-81
2022/09/10 17:41:59;;;;;;;426.83;157.63;;;;;;;20.69;53.88;97732.22;8319868;28;20236;-80
2022/09/10 17:46:03;;;;;;;396.63;142.70;;;;;;;20.76;53.42;97735.13;8319928;28;20436;-80
2022/09/10 17:50:09;;;;;;;158.00;54.60;;;;;;;20.55;54.21;97740.47;8319918;28;20237;-79
2022/09/10 17:54:12;;;;;;;136.47;50.10;;;;;;;20.48;54.52;97748.06;8319664;28;20243;-81
2022/09/10 17:58:15;;;;;;;110.17;38.07;;;;;;;20.33;55.50;97744.16;8318986;28;20236;-83
2022/09/10 18:02:18;;;;;;;66.43;25.03;;;;;;;20.09;56.16;97752.41;8319716;28;20392;-82
2022/09/10 18:06:24;;;;;;;26.97;10.33;;;;;;;20.24;55.18;97753.69;8319312;28;20468;-81
2022/09/10 18:10:26;;;;;;;24.87;9.20;;;;;;;20.39;54.90;97754.16;8319448;28;20229;-82
2022/09/10 18:14:29;;;;;;;21.40;6.93;;;;;;;20.46;54.50;97747.34;8319892;28;20424;-83
2022/09/10 18:18:33;;;;;;;12.30;5.57;;;;;;;20.29;54.75;97753.28;8319108;28;20602;-81
2022/09/10 18:22:38;;;;;;;11.13;4.40;;;;;;;20.23;55.27;97754.66;8319094;28;20406;-82
2022/09/10 18:26:43;;;;;;;8.50;2.60;;;;;;;20.19;55.25;97763.78;8318373;28;20238;-82
2022/09/10 18:30:45;;;;;;;2.47;1.00;;;;;;;20.07;55.82;97757.78;8318758;28;20242;-80
2022/09/10 18:34:48;;;;;;;6.87;2.47;;;;;;;19.98;55.94;97761.19;8318066;28;20237;-79
2022/09/10 18:38:52;;;;;;;3.80;1.30;;;;;;;20.14;55.86;97765.13;8318567;28;20519;-78
2022/09/10 18:42:55;;;;;;;3.60;1.70;;;;;;;20.17;55.93;97768.31;8318219;28;20242;-80
2022/09/10 18:46:58;;;;;;;3.70;1.20;;;;;;;19.97;55.77;97772.69;8318221;28;20287;-83
2022/09/10 18:51:04;;;;;;;4.00;1.00;;;;;;;19.88;56.03;97779.56;8318232;28;20242;-81
2022/09/10 18:55:09;;;;;;;3.67;0.90;;;;;;;19.83;56.30;97778.28;8318046;28;20251;-86
2022/09/10 18:59:13;;;;;;;4.37;1.23;;;;;;;19.85;56.18;97776.34;8317966;28;20233;-80
2022/09/10 19:03:16;;;;;;;3.00;1.00;;;;;;;19.81;56.56;97786.28;8317613;28;20249;-81
2022/09/10 19:07:20;;;;;;;4.03;1.10;;;;;;;19.71;56.80;97796.72;8317788;28;20546;-81
2022/09/10 19:11:26;;;;;;;5.03;1.43;;;;;;;19.72;57.00;97787.06;8317686;28;20429;-79
2022/09/10 19:15:30;;;;;;;3.03;1.00;;;;;;;19.59;57.75;97781.16;8317618;28;20241;-79